createdAt,value
2019-04-14T00:00:33.918Z,16.73
2019-04-14T00:03:06.580Z,17.03
2019-04-14T00:05:36.998Z,16.53
2019-04-14T00:08:07.132Z,17.00
2019-04-14T00:10:37.816Z,15.97
2019-04-14T00:13:08.870Z,15.67
2019-04-14T00:15:42.676Z,15.80
2019-04-14T00:18:11.767Z,16.47
2019-04-14T00:20:42.575Z,16.73
2019-04-14T00:23:13.074Z,17.10
2019-04-14T00:25:43.413Z,17.43
2019-04-14T00:28:14.129Z,17.70
2019-04-14T00:30:44.795Z,18.27
2019-04-14T00:33:17.007Z,18.63
2019-04-14T00:35:49.561Z,18.87
2019-04-14T00:38:32.315Z,19.60
2019-04-14T00:41:33.793Z,18.73
2019-04-14T00:44:03.547Z,19.07
2019-04-14T00:46:35.738Z,19.23
2019-04-14T00:49:07.046Z,20.63
2019-04-14T00:51:39.153Z,20.30
2019-04-14T00:54:08.902Z,21.23
2019-04-14T00:56:39.448Z,21.33
2019-04-14T00:59:09.434Z,20.30
2019-04-14T01:01:39.529Z,20.40
2019-04-14T01:04:09.780Z,22.50
2019-04-14T01:06:41.061Z,22.50
2019-04-14T01:09:13.038Z,23.53
2019-04-14T01:11:44.256Z,23.63
2019-04-14T01:14:14.766Z,24.73
2019-04-14T01:16:45.180Z,24.57
2019-04-14T01:19:15.541Z,24.33
2019-04-14T01:21:48.024Z,25.37
2019-04-14T01:24:18.570Z,26.43
2019-04-14T01:26:49.138Z,26.30
2019-04-14T01:29:19.085Z,27.47
2019-04-14T01:31:49.354Z,28.50
2019-04-14T01:34:19.533Z,27.40
2019-04-14T01:36:49.745Z,30.83
2019-04-14T01:39:19.814Z,29.07
2019-04-14T01:41:50.011Z,28.97
2019-04-14T01:44:19.973Z,27.27
2019-04-14T01:46:49.960Z,28.00
2019-04-14T01:49:20.369Z,26.07
2019-04-14T01:52:10.348Z,27.27
2019-04-14T01:54:45.471Z,25.03
2019-04-14T01:57:17.569Z,25.53
2019-04-14T01:59:48.249Z,22.43
2019-04-14T02:02:21.085Z,21.23
2019-04-14T02:04:51.021Z,20.83
2019-04-14T02:07:21.247Z,20.37
2019-04-14T02:09:51.249Z,18.63
2019-04-14T02:12:21.459Z,19.90
2019-04-14T02:14:51.705Z,19.27
2019-04-14T02:17:22.076Z,18.50
2019-04-14T02:19:52.425Z,18.40
2019-04-14T02:22:24.544Z,18.00
2019-04-14T02:24:55.123Z,18.93
2019-04-14T02:27:25.354Z,18.30
2019-04-14T02:29:55.946Z,19.60
2019-04-14T02:35:31.187Z,18.07
2019-04-14T02:38:03.594Z,18.43
2019-04-14T02:40:49.316Z,18.47
2019-04-14T02:42:54.505Z,19.20
2019-04-14T02:45:35.169Z,18.57
2019-04-14T02:50:31.166Z,17.70
2019-04-14T02:53:12.231Z,15.03
2019-04-14T02:55:42.831Z,11.63
2019-04-14T03:08:25.249Z,12.20
2019-04-14T03:10:47.301Z,10.97
2019-04-14T03:13:27.183Z,10.10
2019-04-14T03:15:59.050Z,10.20
2019-04-14T03:18:39.496Z,10.50
2019-04-14T03:21:29.949Z,11.17
2019-04-14T03:24:05.059Z,10.40
2019-04-14T03:26:51.148Z,10.13
2019-04-14T03:29:26.824Z,10.47
2019-04-14T03:39:46.062Z,10.10
2019-04-14T03:44:42.017Z,9.60
2019-04-14T03:49:56.423Z,11.87
2019-04-14T03:52:31.725Z,12.03
2019-04-14T03:54:36.091Z,11.03
2019-04-14T03:56:53.912Z,12.80
2019-04-14T03:59:24.198Z,12.53
2019-04-14T04:01:54.561Z,12.40
2019-04-14T04:04:25.511Z,13.43
2019-04-14T04:06:55.516Z,13.07
2019-04-14T04:09:30.391Z,13.07
2019-04-14T04:12:00.607Z,13.23
2019-04-14T04:14:31.318Z,13.50
2019-04-14T04:17:18.916Z,13.70
2019-04-14T04:19:51.386Z,13.37
2019-04-14T04:22:32.563Z,14.00
2019-04-14T04:25:20.419Z,13.57
2019-04-14T04:28:04.213Z,12.23
2019-04-14T04:30:36.271Z,13.40
2019-04-14T04:33:11.002Z,11.33
2019-04-14T04:35:45.757Z,11.90
2019-04-14T04:38:36.321Z,12.37
2019-04-14T04:41:06.356Z,12.27
2019-04-14T04:43:36.848Z,12.10
2019-04-14T04:46:06.944Z,12.23
2019-04-14T04:48:37.426Z,11.63
2019-04-14T04:51:07.396Z,11.63
2019-04-14T04:53:37.629Z,12.00
2019-04-14T04:56:08.108Z,11.93
2019-04-14T04:58:39.135Z,11.87
2019-04-14T05:01:09.928Z,12.20
2019-04-14T05:03:40.726Z,11.17
2019-04-14T05:06:48.323Z,11.30
2019-04-14T05:09:21.024Z,11.17
2019-04-14T05:12:09.299Z,10.90
2019-04-14T05:14:48.009Z,10.63
2019-04-14T05:17:25.894Z,11.70
2019-04-14T05:19:56.258Z,12.33
2019-04-14T05:22:26.759Z,11.67
2019-04-14T05:24:57.204Z,12.47
2019-04-14T05:27:29.747Z,12.20
2019-04-14T05:30:00.447Z,12.17
2019-04-14T05:32:30.567Z,10.17
2019-04-14T05:35:00.845Z,11.23
2019-04-14T05:37:33.225Z,13.40
2019-04-14T05:40:04.289Z,13.33
2019-04-14T05:42:34.243Z,13.27
2019-04-14T05:45:06.567Z,12.67
2019-04-14T05:47:37.138Z,13.17
2019-04-14T05:50:09.410Z,14.53
2019-04-14T05:52:40.469Z,14.13
2019-04-14T05:55:11.288Z,12.73
2019-04-14T05:57:43.781Z,11.23
2019-04-14T06:00:16.776Z,13.90
2019-04-14T06:02:46.803Z,11.77
2019-04-14T06:05:16.771Z,12.13
2019-04-14T06:07:46.709Z,12.17
2019-04-14T06:10:16.676Z,12.27
2019-04-14T06:12:46.658Z,12.20
2019-04-14T06:15:17.026Z,14.07
2019-04-14T06:17:46.962Z,11.07
2019-04-14T06:20:16.950Z,12.17
2019-04-14T06:22:46.898Z,10.77
2019-04-14T06:25:16.880Z,11.30
2019-04-14T06:27:46.842Z,10.93
2019-04-14T06:30:19.185Z,12.67
2019-04-14T06:32:50.217Z,11.33
2019-04-14T06:35:21.818Z,10.90
2019-04-14T06:37:56.115Z,10.10
2019-04-14T06:40:27.723Z,8.77
2019-04-14T06:42:57.771Z,10.57
2019-04-14T06:45:27.813Z,13.83
2019-04-14T06:47:57.812Z,10.27
2019-04-14T06:50:27.849Z,12.90
2019-04-14T06:52:57.830Z,12.87
2019-04-14T06:55:27.891Z,12.63
2019-04-14T06:57:58.936Z,13.27
2019-04-14T07:00:28.902Z,12.97
2019-04-14T07:02:58.877Z,12.77
2019-04-14T07:05:28.823Z,11.43
2019-04-14T07:07:58.786Z,11.73
2019-04-14T07:10:28.730Z,11.87
2019-04-14T07:12:58.689Z,12.17
2019-04-14T07:15:28.634Z,12.43
2019-04-14T07:17:58.597Z,13.17
2019-04-14T07:20:28.547Z,14.37
2019-04-14T07:22:58.527Z,14.57
2019-04-14T07:25:28.486Z,15.60
2019-04-14T07:27:58.527Z,15.97
2019-04-14T07:30:48.222Z,14.70
2019-04-14T07:33:36.004Z,13.20
2019-04-14T07:36:22.659Z,16.13
2019-04-14T07:38:57.095Z,14.07
2019-04-14T07:41:34.767Z,15.63
2019-04-14T07:44:15.422Z,14.20
2019-04-14T07:46:47.035Z,15.93
2019-04-14T07:49:24.699Z,14.50
2019-04-14T07:52:14.703Z,15.60
2019-04-14T07:54:46.290Z,15.37
2019-04-14T07:57:34.065Z,15.87
2019-04-14T08:00:10.168Z,17.47
2019-04-14T08:02:41.783Z,18.50
2019-04-14T08:05:19.399Z,20.37
2019-04-14T08:07:51.009Z,20.23
2019-04-14T08:10:20.964Z,20.57
2019-04-14T08:12:50.935Z,21.87
2019-04-14T08:15:20.878Z,21.50
2019-04-14T08:17:50.855Z,18.87
2019-04-14T08:20:27.222Z,23.07
2019-04-14T08:22:52.378Z,24.23
2019-04-14T08:25:22.391Z,25.03
2019-04-14T08:27:52.359Z,25.80
2019-04-14T08:30:22.471Z,24.47
2019-04-14T08:32:53.057Z,24.37
2019-04-14T08:35:23.004Z,26.67
2019-04-14T08:37:52.970Z,25.67
2019-04-14T08:40:22.909Z,26.30
2019-04-14T08:43:00.279Z,29.23
2019-04-14T08:45:38.015Z,26.97
2019-04-14T08:48:15.824Z,28.27
2019-04-14T08:50:47.407Z,27.67
2019-04-14T08:53:21.975Z,28.70
2019-04-14T08:55:53.568Z,35.30
2019-04-14T08:58:25.174Z,64.03
2019-04-14T09:01:12.046Z,72.93
2019-04-14T09:03:49.653Z,32.70
2019-04-14T09:06:22.306Z,32.17
2019-04-14T09:08:56.362Z,30.13
2019-04-14T09:11:36.839Z,32.10
2019-04-14T09:14:06.815Z,34.23
2019-04-14T09:16:36.756Z,36.23
2019-04-14T09:19:07.763Z,35.47
2019-04-14T09:21:38.079Z,35.90
2019-04-14T09:24:08.052Z,36.67
2019-04-14T09:26:38.003Z,38.90
2019-04-14T09:29:07.983Z,39.97
2019-04-14T09:31:37.932Z,39.50
2019-04-14T09:34:07.909Z,41.07
2019-04-14T09:36:37.864Z,40.73
2019-04-14T09:39:07.997Z,44.33
2019-04-14T09:41:40.291Z,40.73
2019-04-14T09:44:10.263Z,41.07
2019-04-14T09:46:40.219Z,43.90
2019-04-14T09:49:10.181Z,39.60
2019-04-14T09:51:40.173Z,43.17
2019-04-14T09:54:10.201Z,45.53
2019-04-14T09:56:40.155Z,39.53
2019-04-14T09:59:10.121Z,43.57
2019-04-14T10:01:40.147Z,46.30
2019-04-14T10:04:10.114Z,43.03
2019-04-14T10:06:40.995Z,44.37
2019-04-14T10:09:11.894Z,44.80
2019-04-14T10:11:48.540Z,45.80
2019-04-14T10:14:13.446Z,47.60
2019-04-14T10:16:43.389Z,45.57
2019-04-14T10:19:13.358Z,44.73
2019-04-14T10:21:43.296Z,45.70
2019-04-14T10:24:14.329Z,46.07
2019-04-14T10:26:44.278Z,45.13
2019-04-14T10:29:14.250Z,49.03
2019-04-14T10:31:44.182Z,49.70
2019-04-14T10:34:14.153Z,48.90
2019-04-14T10:36:44.105Z,48.90
2019-04-14T10:39:14.073Z,45.57
2019-04-14T10:41:44.029Z,48.47
2019-04-14T10:44:14.027Z,47.60
2019-04-14T10:46:44.076Z,46.87
2019-04-14T10:49:14.198Z,46.87
2019-04-14T10:51:44.188Z,50.17
2019-04-14T10:54:15.234Z,50.00
2019-04-14T10:56:45.173Z,49.47
2019-04-14T10:59:15.204Z,46.27
2019-04-14T11:01:45.145Z,47.83
2019-04-14T11:04:15.116Z,45.20
2019-04-14T11:06:50.495Z,45.77
2019-04-14T11:09:20.457Z,45.60
2019-04-14T11:11:50.411Z,47.77
2019-04-14T11:14:20.387Z,50.13
2019-04-14T11:16:50.333Z,47.23
2019-04-14T11:19:20.367Z,50.87
2019-04-14T11:21:50.334Z,51.37
2019-04-14T11:24:20.367Z,49.00
2019-04-14T11:26:50.322Z,47.20
2019-04-14T11:29:20.295Z,48.50
2019-04-14T11:31:54.823Z,44.83
2019-04-14T11:34:26.429Z,44.30
2019-04-14T11:36:58.014Z,46.60
2019-04-14T11:39:27.994Z,45.27
2019-04-14T11:41:58.045Z,44.57
2019-04-14T11:44:28.039Z,44.20
2019-04-14T11:46:57.979Z,44.33
2019-04-14T11:49:27.955Z,42.37
2019-04-14T11:51:57.894Z,42.83
2019-04-14T11:54:28.925Z,42.43
2019-04-14T11:56:58.944Z,41.50
2019-04-14T11:59:30.551Z,40.50
2019-04-14T12:02:02.131Z,41.73
2019-04-14T12:04:39.513Z,44.47
2019-04-14T12:07:11.085Z,39.37
2019-04-14T12:09:45.838Z,42.20
2019-04-14T12:12:15.790Z,44.60
2019-04-14T12:14:45.850Z,47.83
2019-04-14T12:17:15.858Z,43.40
2019-04-14T12:19:45.980Z,41.47
2019-04-14T12:22:15.927Z,43.97
2019-04-14T12:24:45.902Z,42.23
2019-04-14T12:27:15.899Z,44.10
2019-04-14T12:29:45.866Z,45.77
2019-04-14T12:32:17.217Z,47.93
2019-04-14T12:34:47.228Z,41.80
2019-04-14T12:37:17.333Z,43.00
2019-04-14T12:39:47.484Z,42.83
2019-04-14T12:42:19.071Z,47.17
2019-04-14T12:45:07.212Z,44.37
2019-04-14T12:47:42.200Z,48.13
2019-04-14T12:50:16.787Z,40.13
2019-04-14T12:52:46.741Z,43.40
2019-04-14T12:55:16.710Z,39.73
2019-04-14T12:57:48.332Z,40.07
2019-04-14T13:00:38.619Z,37.10
2019-04-14T13:03:08.683Z,40.17
2019-04-14T13:05:38.728Z,32.90
2019-04-14T13:08:08.912Z,33.03
2019-04-14T13:10:38.884Z,31.53
2019-04-14T13:13:08.859Z,31.57
2019-04-14T13:15:38.839Z,31.73
2019-04-14T13:18:08.785Z,33.97
2019-04-14T13:20:38.842Z,31.43
2019-04-14T13:23:08.793Z,32.13
2019-04-14T13:25:38.790Z,32.43
2019-04-14T13:28:08.810Z,29.80
2019-04-14T13:30:40.646Z,40.33
2019-04-14T13:33:10.677Z,29.60
2019-04-14T13:35:40.651Z,28.90
2019-04-14T13:38:11.658Z,30.70
2019-04-14T13:40:41.731Z,32.50
2019-04-14T13:43:11.660Z,32.63
2019-04-14T13:45:41.609Z,26.53
2019-04-14T13:48:11.582Z,25.23
2019-04-14T13:50:42.032Z,27.13
2019-04-14T13:53:11.981Z,25.13
2019-04-14T13:55:41.939Z,24.10
2019-04-14T13:58:11.907Z,22.73
2019-04-14T14:00:41.857Z,24.40
2019-04-14T14:03:11.843Z,23.43
2019-04-14T14:05:43.607Z,22.40
2019-04-14T14:08:13.556Z,24.27
2019-04-14T14:10:43.574Z,23.37
2019-04-14T14:13:18.104Z,21.17
2019-04-14T14:15:58.815Z,22.93
2019-04-14T14:18:30.435Z,22.27
2019-04-14T14:21:02.027Z,21.60
2019-04-14T14:23:45.598Z,22.27
2019-04-14T14:26:26.283Z,20.57
2019-04-14T14:28:56.283Z,20.90
2019-04-14T14:31:26.343Z,19.70
2019-04-14T14:33:56.363Z,20.47
2019-04-14T14:36:26.353Z,20.83
2019-04-14T14:38:57.298Z,20.90
2019-04-14T14:41:27.258Z,20.07
2019-04-14T14:43:57.239Z,20.70
2019-04-14T14:46:36.929Z,23.30
2019-04-14T14:49:08.045Z,35.77
2019-04-14T14:51:48.635Z,22.97
2019-04-14T14:54:18.619Z,20.83
2019-04-14T14:56:48.706Z,20.57
2019-04-14T14:59:18.765Z,22.10
2019-04-14T15:01:48.717Z,20.00
2019-04-14T15:04:19.253Z,21.63
2019-04-14T15:06:49.764Z,19.33
2019-04-14T15:09:19.747Z,20.00
2019-04-14T15:11:49.712Z,19.27
2019-04-14T15:14:19.676Z,20.40
2019-04-14T15:16:49.643Z,21.10
2019-04-14T15:19:19.728Z,19.60
2019-04-14T15:21:49.706Z,19.87
2019-04-14T15:24:19.687Z,20.07
2019-04-14T15:26:49.648Z,18.87
2019-04-14T15:29:19.617Z,17.90
2019-04-14T15:31:49.565Z,19.47
2019-04-14T15:34:19.538Z,19.73
2019-04-14T15:36:49.496Z,20.10
2019-04-14T15:39:19.463Z,18.50
2019-04-14T15:41:49.414Z,20.47
2019-04-14T15:44:19.379Z,19.53
2019-04-14T15:46:49.339Z,20.10
2019-04-14T15:49:19.313Z,18.43
2019-04-14T15:51:49.270Z,20.77
2019-04-14T15:54:19.240Z,19.03
2019-04-14T15:56:56.820Z,20.00
2019-04-14T15:59:40.707Z,19.30
2019-04-14T16:02:12.304Z,19.07
2019-04-14T16:04:43.932Z,19.10
2019-04-14T16:07:27.615Z,19.17
2019-04-14T16:10:11.369Z,18.53
2019-04-14T16:12:48.919Z,17.97
2019-04-14T16:15:27.159Z,18.67
2019-04-14T16:17:58.827Z,18.30
2019-04-14T16:20:33.205Z,16.53
2019-04-14T16:23:03.261Z,15.60
2019-04-14T16:25:48.017Z,15.40
2019-04-14T16:28:22.005Z,15.30
2019-04-14T16:31:09.976Z,15.10
2019-04-14T16:34:02.506Z,13.70
2019-04-14T16:36:32.564Z,13.47
2019-04-14T16:39:02.677Z,13.60
2019-04-14T16:41:34.342Z,13.97
2019-04-14T16:44:05.547Z,15.03
2019-04-14T16:46:35.532Z,15.07
2019-04-14T16:49:05.597Z,13.57
2019-04-14T16:51:46.091Z,13.87
2019-04-14T16:54:35.383Z,14.07
2019-04-14T16:57:15.928Z,13.63
2019-04-14T16:59:47.035Z,13.57
2019-04-14T17:02:18.639Z,14.07
2019-04-14T17:04:48.600Z,13.63
2019-04-14T17:07:18.574Z,13.73
2019-04-14T17:09:48.603Z,14.13
2019-04-14T17:12:18.575Z,14.13
2019-04-14T17:15:06.888Z,12.03
2019-04-14T17:17:56.452Z,12.83
2019-04-14T17:20:28.230Z,12.37
2019-04-14T17:23:05.834Z,12.03
2019-04-14T17:25:39.985Z,12.03
2019-04-14T17:28:23.310Z,11.47
2019-04-14T17:31:10.045Z,11.37
2019-04-14T17:33:47.523Z,11.10
2019-04-14T17:36:19.131Z,11.90
2019-04-14T17:39:02.885Z,11.47
2019-04-14T17:41:45.028Z,10.70
2019-04-14T17:44:25.924Z,11.70
2019-04-14T17:47:03.316Z,10.47
2019-04-14T17:49:37.749Z,10.80
2019-04-14T17:52:25.653Z,10.93
2019-04-14T17:55:03.473Z,11.10
2019-04-14T17:57:53.473Z,11.07
2019-04-14T18:00:34.071Z,10.27
2019-04-14T18:03:17.764Z,10.63
2019-04-14T18:05:49.426Z,10.53
2019-04-14T18:08:29.826Z,11.60
2019-04-14T18:11:07.144Z,11.53
2019-04-14T18:13:50.478Z,10.43
2019-04-14T18:16:24.864Z,10.23
2019-04-14T18:18:59.541Z,10.40
2019-04-14T18:21:29.529Z,10.87
2019-04-14T18:23:59.489Z,10.70
2019-04-14T18:26:30.527Z,10.60
2019-04-14T18:29:02.122Z,10.33
2019-04-14T18:31:36.141Z,9.93
2019-04-14T18:34:12.420Z,9.97
2019-04-14T18:36:46.366Z,10.07
2019-04-14T18:39:34.490Z,10.67
2019-04-14T18:42:06.096Z,10.27
2019-04-14T18:44:43.771Z,10.17
2019-04-14T18:47:24.609Z,10.10
2019-04-14T18:50:05.014Z,10.30
2019-04-14T18:52:48.412Z,10.33
2019-04-14T18:55:28.951Z,10.30
2019-04-14T18:58:18.609Z,11.07
2019-04-14T19:01:08.159Z,10.40
2019-04-14T19:03:38.230Z,10.03
2019-04-14T19:06:08.196Z,10.60
2019-04-14T19:08:38.180Z,10.60
2019-04-14T19:11:15.550Z,9.47
2019-04-14T19:13:56.076Z,9.70
2019-04-14T19:16:40.228Z,10.77
2019-04-14T19:19:11.404Z,10.23
2019-04-14T19:21:42.431Z,10.13
2019-04-14T19:24:12.406Z,10.13
2019-04-14T19:26:42.456Z,9.97
2019-04-14T19:29:12.413Z,9.70
2019-04-14T19:31:42.886Z,10.30
2019-04-14T19:34:12.854Z,10.03
2019-04-14T19:36:42.795Z,9.47
2019-04-14T19:39:12.760Z,10.60
2019-04-14T19:41:42.979Z,9.63
2019-04-14T19:44:12.938Z,9.73
2019-04-14T19:46:43.913Z,10.00
2019-04-14T19:49:13.883Z,9.67
2019-04-14T19:51:43.821Z,10.03
2019-04-14T19:54:14.752Z,9.97
2019-04-14T19:56:44.703Z,11.17
2019-04-14T19:59:14.807Z,11.23
2019-04-14T20:01:44.748Z,10.30
2019-04-14T20:04:14.719Z,11.10
2019-04-14T20:06:44.672Z,12.43
2019-04-14T20:09:14.647Z,10.83
2019-04-14T20:11:44.835Z,10.90
2019-04-14T20:14:14.717Z,10.27
2019-04-14T20:16:49.221Z,11.50
2019-04-14T20:19:20.860Z,10.73
2019-04-14T20:22:07.648Z,10.97
2019-04-14T20:24:39.317Z,10.33
2019-04-14T20:27:19.643Z,10.70
2019-04-14T20:30:07.455Z,10.83
2019-04-14T20:32:39.198Z,9.63
2019-04-14T20:35:09.629Z,9.67
2019-04-14T20:37:39.580Z,11.00
2019-04-14T20:40:10.261Z,10.40
2019-04-14T20:42:40.273Z,10.13
2019-04-14T20:45:12.424Z,10.63
2019-04-14T20:47:42.371Z,9.87
2019-04-14T20:50:12.973Z,9.50
2019-04-14T20:52:42.982Z,9.83
2019-04-14T20:55:13.123Z,9.63
2019-04-14T20:57:44.302Z,10.73
2019-04-14T21:00:16.858Z,10.20
2019-04-14T21:02:51.464Z,9.57
2019-04-14T21:05:34.619Z,10.33
2019-04-14T21:08:25.263Z,9.50
2019-04-14T21:10:59.804Z,10.13
2019-04-14T21:13:46.419Z,9.57
2019-04-14T21:16:23.787Z,9.63
2019-04-14T21:18:55.380Z,10.37
2019-04-14T21:21:26.986Z,10.10
2019-04-14T21:23:58.574Z,9.60
2019-04-14T21:26:35.964Z,10.30
2019-04-14T21:29:19.746Z,10.63
2019-04-14T21:31:51.322Z,9.63
2019-04-14T21:34:22.948Z,10.70
2019-04-14T21:37:10.987Z,10.20
2019-04-14T21:39:48.527Z,10.10
2019-04-14T21:42:19.255Z,10.90
2019-04-14T21:44:49.238Z,11.30
2019-04-14T21:47:19.192Z,10.30
2019-04-14T21:49:49.163Z,11.50
2019-04-14T21:52:26.498Z,12.03
2019-04-14T21:54:56.489Z,11.03
2019-04-14T21:57:31.076Z,11.20
2019-04-14T22:00:05.767Z,11.73
2019-04-14T22:02:55.335Z,12.33
2019-04-14T22:05:35.681Z,12.03
2019-04-14T22:08:10.201Z,10.93
2019-04-14T22:10:41.812Z,13.50
2019-04-14T22:13:11.889Z,11.40
2019-04-14T22:15:41.867Z,10.87
2019-04-14T22:18:11.817Z,10.00
2019-04-14T22:20:41.773Z,10.80
2019-04-14T22:23:13.300Z,10.80
2019-04-14T22:25:43.259Z,10.70
2019-04-14T22:28:13.206Z,10.73
2019-04-14T22:30:43.382Z,10.60
2019-04-14T22:33:13.490Z,10.40
2019-04-14T22:35:43.513Z,9.63
2019-04-14T22:38:13.505Z,10.50
2019-04-14T22:40:43.570Z,8.97
2019-04-14T22:43:13.537Z,10.07
2019-04-14T22:45:43.555Z,9.73
2019-04-14T22:48:13.527Z,10.97
2019-04-14T22:50:43.711Z,10.60
2019-04-14T22:53:13.667Z,10.20
2019-04-14T22:55:43.606Z,10.53
2019-04-14T22:58:13.688Z,10.37
2019-04-14T23:00:45.280Z,10.67
2019-04-14T23:03:18.553Z,10.50
2019-04-14T23:06:03.240Z,9.90
2019-04-14T23:08:40.539Z,11.40
2019-04-14T23:11:14.864Z,10.87
2019-04-14T23:13:58.360Z,12.50
2019-04-14T23:16:39.973Z,11.40
2019-04-14T23:19:11.554Z,11.23
2019-04-14T23:21:46.103Z,11.53
2019-04-14T23:24:17.702Z,10.93
2019-04-14T23:26:52.867Z,11.83
2019-04-14T23:29:19.402Z,11.57
2019-04-14T23:31:49.381Z,11.77
2019-04-14T23:34:19.321Z,11.30
2019-04-14T23:36:49.295Z,12.53
2019-04-14T23:39:19.247Z,12.17
2019-04-14T23:41:49.233Z,11.90
2019-04-14T23:44:19.171Z,11.67
2019-04-14T23:46:49.147Z,11.43
2019-04-14T23:49:19.092Z,11.60
2019-04-14T23:51:49.053Z,12.57
2019-04-14T23:54:19.072Z,11.63
2019-04-14T23:56:49.109Z,12.33
2019-04-14T23:59:19.050Z,13.77
